Time;durP1;ratioP1;P1;durP2;ratioP2;P2;SDS_P1;SDS_P2;PMS_P1;PMS_P2;Temp;Humidity;BMP_temperature;BMP_pressure;BME280_temperature;BME280_humidity;BME280_pressure;Samples;Min_cycle;Max_cycle;Signal;HPM_P1;HPM_P2
2021/04/18 00:00:17;;;;;;;38.17;22.62;;;;;;;3.08;84.98;99583.08;1807840;79;21152;-61
2021/04/18 00:02:49;;;;;;;31.80;17.82;;;;;;;3.03;84.84;99582.69;1807830;79;21145;-61
2021/04/18 00:05:25;;;;;;;20.52;16.00;;;;;;;2.96;84.84;99589.63;1807872;78;22413;-61
2021/04/18 00:08:01;;;;;;;23.30;17.75;;;;;;;2.92;84.98;99585.80;1807775;79;21179;-61
2021/04/18 00:10:23;;;;;;;21.65;17.65;;;;;;;2.87;85.20;99578.56;1807093;78;21164;-61
2021/04/18 00:12:50;;;;;;;21.02;17.95;;;;;;;2.86;85.34;99575.58;1807815;78;21065;-61
2021/04/18 00:15:18;;;;;;;23.12;17.80;;;;;;;2.82;85.44;99570.89;1807827;78;21478;-62
2021/04/18 00:17:47;;;;;;;32.30;20.20;;;;;;;2.80;85.45;99574.36;1807807;79;21160;-61
2021/04/18 00:20:15;;;;;;;42.45;26.02;;;;;;;2.75;85.28;99566.25;1807601;78;21160;-62
2021/04/18 00:22:43;;;;;;;46.23;28.38;;;;;;;2.72;85.16;99573.13;1807782;79;21140;-61
2021/04/18 00:25:13;;;;;;;35.50;23.55;;;;;;;2.66;84.98;99570.60;1807804;78;21041;-61
2021/04/18 00:27:42;;;;;;;27.80;20.30;;;;;;;2.61;84.83;99577.48;1807878;78;21061;-61
2021/04/18 00:30:12;;;;;;;34.00;20.88;;;;;;;2.56;84.90;99569.84;1778903;78;22140;-62
2021/04/18 00:32:39;;;;;;;20.08;16.02;;;;;;;2.52;84.98;99563.02;1807745;79;21061;-60
2021/04/18 00:35:08;;;;;;;25.05;17.80;;;;;;;2.47;84.83;99567.33;1807782;79;21038;-61
2021/04/18 00:37:37;;;;;;;37.10;25.43;;;;;;;2.41;85.02;99570.78;1807776;79;21096;-62
2021/04/18 00:40:12;;;;;;;39.83;25.43;;;;;;;2.39;85.14;99575.10;1807817;79;21128;-62
2021/04/18 00:42:40;;;;;;;36.75;25.27;;;;;;;2.34;84.89;99565.72;1807133;79;21367;-61
2021/04/18 00:45:10;;;;;;;29.50;19.92;;;;;;;2.28;84.62;99567.03;1807738;79;21069;-62
2021/04/18 00:47:43;;;;;;;26.80;19.62;;;;;;;2.21;84.67;99565.36;1807907;78;21473;-62
2021/04/18 00:50:13;;;;;;;22.82;16.30;;;;;;;2.17;84.71;99568.40;1807928;79;21465;-60
2021/04/18 00:52:40;;;;;;;18.85;15.32;;;;;;;2.14;84.96;99558.58;1807786;78;21510;-61
2021/04/18 00:55:09;;;;;;;25.65;17.10;;;;;;;2.09;85.54;99566.30;1807809;78;21376;-61
2021/04/18 00:57:36;;;;;;;19.40;15.28;;;;;;;2.04;85.90;99566.74;1807714;79;21156;-61
2021/04/18 01:00:06;;;;;;;25.97;15.65;;;;;;;2.00;86.09;99560.77;1807856;79;21544;-61
2021/04/18 01:02:34;;;;;;;21.70;15.38;;;;;;;1.95;86.17;99557.83;1807768;78;21589;-60
2021/04/18 01:05:02;;;;;;;26.68;16.20;;;;;;;1.90;86.38;99569.83;1807802;78;21054;-61
2021/04/18 01:07:30;;;;;;;33.55;18.02;;;;;;;1.84;86.61;99560.87;1807782;78;21297;-61
2021/04/18 01:09:58;;;;;;;32.30;16.82;;;;;;;1.79;86.71;99563.48;1807710;79;21062;-61
2021/04/18 01:12:25;;;;;;;16.93;13.90;;;;;;;1.74;86.87;99561.36;1807788;79;21117;-61
2021/04/18 01:14:53;;;;;;;18.02;13.68;;;;;;;1.70;87.02;99564.36;1807786;79;21164;-60
2021/04/18 01:17:21;;;;;;;19.85;13.85;;;;;;;1.66;87.18;99557.95;1807780;79;21478;-61
2021/04/18 01:19:48;;;;;;;19.00;14.58;;;;;;;1.63;87.55;99560.53;1807603;78;22337;-61
2021/04/18 01:22:16;;;;;;;21.27;14.83;;;;;;;1.59;87.78;99562.71;1807669;78;21057;-60
2021/04/18 01:24:45;;;;;;;18.32;14.18;;;;;;;1.56;88.01;99567.42;1806236;78;21116;-61
2021/04/18 01:27:31;;;;;;;13.72;12.00;;;;;;;1.52;88.24;99568.28;1807824;79;21477;-60
2021/04/18 01:29:58;;;;;;;17.57;12.30;;;;;;;1.49;88.33;99573.41;1807813;79;21038;-60
2021/04/18 01:32:26;;;;;;;40.48;13.30;;;;;;;1.44;88.46;99575.13;1807739;79;21197;-60
2021/04/18 01:34:53;;;;;;;27.27;13.80;;;;;;;1.44;88.82;99578.12;1807711;78;21081;-60
2021/04/18 01:37:21;;;;;;;19.07;14.10;;;;;;;1.47;88.84;99580.67;1807740;78;21073;-60
2021/04/18 01:39:48;;;;;;;15.15;12.65;;;;;;;1.46;88.83;99573.41;1807768;78;21053;-61
2021/04/18 01:42:16;;;;;;;19.52;13.93;;;;;;;1.48;88.81;99574.70;1807778;78;21130;-61
2021/04/18 01:44:44;;;;;;;17.75;14.20;;;;;;;1.50;88.96;99578.97;1754316;79;22889;-61
2021/04/18 01:47:12;;;;;;;26.37;20.05;;;;;;;1.52;89.00;99581.52;1807700;79;21097;-61
2021/04/18 01:49:40;;;;;;;26.73;20.90;;;;;;;1.53;88.89;99582.80;1807756;79;21049;-61
2021/04/18 01:52:08;;;;;;;24.07;17.32;;;;;;;1.53;88.50;99574.26;1807748;78;21057;-61
2021/04/18 01:54:36;;;;;;;19.67;14.53;;;;;;;1.50;88.07;99572.55;1807814;79;21588;-60
2021/04/18 01:57:05;;;;;;;17.73;14.45;;;;;;;1.47;88.10;99578.11;1807788;78;21573;-61
2021/04/18 01:59:34;;;;;;;19.12;15.90;;;;;;;1.47;88.60;99575.13;1807628;78;21157;-61
2021/04/18 02:02:12;;;;;;;22.55;16.12;;;;;;;1.50;88.70;99579.39;1739659;79;21069;-61
2021/04/18 02:04:42;;;;;;;17.42;14.43;;;;;;;1.50;88.51;99572.55;1807053;78;21042;-60
2021/04/18 02:07:10;;;;;;;16.37;14.15;;;;;;;1.49;88.45;99572.13;1807949;79;21058;-61
2021/04/18 02:09:38;;;;;;;17.45;15.08;;;;;;;1.51;88.69;99576.83;1808007;79;22279;-60
2021/04/18 02:12:09;;;;;;;21.60;16.37;;;;;;;1.51;88.52;99583.66;1807854;79;21137;-61
2021/04/18 02:14:39;;;;;;;20.52;15.55;;;;;;;1.49;88.48;99573.41;1780222;79;21053;-60
2021/04/18 02:17:16;;;;;;;26.17;15.38;;;;;;;1.45;88.36;99574.70;1807964;79;21580;-60
2021/04/18 02:19:44;;;;;;;18.73;14.35;;;;;;;1.35;88.36;99568.34;1809182;79;21501;-61
2021/04/18 02:22:12;;;;;;;21.42;14.63;;;;;;;1.31;88.36;99572.19;1813541;77;21192;-62
2021/04/18 02:24:41;;;;;;;24.32;16.87;;;;;;;1.28;88.55;99564.08;1813077;79;21549;-60
2021/04/18 02:27:09;;;;;;;22.65;16.15;;;;;;;1.27;88.29;99560.23;1813682;78;21482;-60
2021/04/18 02:29:39;;;;;;;23.47;17.40;;;;;;;1.26;88.23;99558.53;1812743;79;21049;-61
2021/04/18 02:32:09;;;;;;;23.05;16.57;;;;;;;1.24;88.15;99564.94;1813243;79;21466;-61
2021/04/18 02:34:38;;;;;;;23.12;16.42;;;;;;;1.23;88.12;99561.95;1812915;78;21305;-61
2021/04/18 02:37:06;;;;;;;20.95;15.68;;;;;;;1.23;87.86;99563.22;1813519;79;21235;-60
2021/04/18 02:39:34;;;;;;;25.68;17.65;;;;;;;1.19;87.63;99562.83;1813582;79;21117;-60
2021/04/18 02:42:04;;;;;;;25.68;18.15;;;;;;;1.19;87.64;99556.86;1813591;79;21615;-61
2021/04/18 02:44:32;;;;;;;23.42;16.52;;;;;;;1.16;87.56;99553.02;1786640;79;21442;-60
2021/04/18 02:47:01;;;;;;;17.48;14.63;;;;;;;1.14;87.48;99553.02;1813613;79;21517;-60
2021/04/18 02:49:29;;;;;;;19.02;13.53;;;;;;;1.15;87.88;99561.13;1813472;78;21493;-61
2021/04/18 02:51:58;;;;;;;19.52;13.60;;;;;;;1.19;88.18;99555.58;1813605;79;21045;-60
2021/04/18 02:54:26;;;;;;;17.92;14.68;;;;;;;1.21;88.45;99557.25;1813587;78;21112;-60
2021/04/18 02:56:55;;;;;;;21.73;18.27;;;;;;;1.26;88.80;99558.10;1813692;78;21520;-60
2021/04/18 02:59:23;;;;;;;24.23;17.90;;;;;;;1.30;88.68;99553.83;1813534;79;21374;-60
2021/04/18 03:01:53;;;;;;;21.80;16.37;;;;;;;1.30;88.32;99552.55;1813497;79;21151;-61
2021/04/18 03:04:21;;;;;;;20.72;16.02;;;;;;;1.30;87.85;99549.55;1813592;79;21077;-61
2021/04/18 03:06:49;;;;;;;25.75;16.77;;;;;;;1.30;87.48;99548.70;1813576;79;21050;-61
2021/04/18 03:09:17;;;;;;;23.55;18.15;;;;;;;1.29;87.47;99547.84;1813599;79;21072;-60
2021/04/18 03:11:48;;;;;;;23.05;17.55;;;;;;;1.34;87.38;99558.09;1813434;79;21077;-60
2021/04/18 03:14:24;;;;;;;22.02;16.02;;;;;;;1.37;87.03;99554.24;1813150;78;21132;-60
2021/04/18 03:16:52;;;;;;;23.65;16.50;;;;;;;1.38;87.05;99552.11;1813676;79;21069;-61
2021/04/18 03:19:20;;;;;;;22.22;16.80;;;;;;;1.46;87.26;99550.34;1813550;79;21050;-60
2021/04/18 03:21:49;;;;;;;19.25;16.00;;;;;;;1.59;87.83;99550.75;1812695;77;21458;-60
2021/04/18 03:24:19;;;;;;;21.37;16.97;;;;;;;1.74;87.99;99549.82;1813600;79;22400;-60
2021/04/18 03:26:47;;;;;;;24.90;15.50;;;;;;;1.89;88.16;99545.03;1813509;79;21118;-60
2021/04/18 03:29:15;;;;;;;24.45;14.75;;;;;;;2.03;88.08;99549.64;1813543;78;21117;-60
2021/04/18 03:31:43;;;;;;;21.87;14.68;;;;;;;2.16;88.08;99553.02;1813558;79;21150;-59
2021/04/18 03:34:11;;;;;;;136.12;21.90;;;;;;;2.28;88.19;99555.05;1786378;79;21498;-60
2021/04/18 03:36:39;;;;;;;19.60;15.63;;;;;;;2.40;88.24;99553.67;1813561;78;21364;-60
2021/04/18 03:39:14;;;;;;;20.57;16.17;;;;;;;2.51;88.33;99544.63;1813319;79;21132;-60
2021/04/18 03:41:43;;;;;;;19.12;15.75;;;;;;;2.65;87.96;99549.64;1813536;79;21133;-60
2021/04/18 03:44:11;;;;;;;17.27;14.45;;;;;;;2.79;87.29;99543.97;1813523;79;21054;-61
2021/04/18 03:46:39;;;;;;;23.47;15.70;;;;;;;2.91;87.12;99537.86;1813576;79;21461;-61
2021/04/18 03:49:08;;;;;;;22.85;17.12;;;;;;;3.02;86.94;99540.73;1813526;79;21215;-61
2021/04/18 03:51:38;;;;;;;22.87;18.40;;;;;;;3.11;87.12;99539.36;1811963;78;21073;-61
2021/04/18 03:54:07;;;;;;;19.27;16.23;;;;;;;3.24;87.35;99538.79;1813066;78;21053;-61
2021/04/18 03:56:35;;;;;;;23.10;15.53;;;;;;;3.37;86.56;99542.09;1813503;79;21537;-61
2021/04/18 03:59:04;;;;;;;21.05;16.17;;;;;;;3.45;86.11;99543.69;1813510;78;21112;-61
2021/04/18 04:01:33;;;;;;;15.83;13.50;;;;;;;3.56;85.89;99545.30;1813561;79;21191;-61
2021/04/18 04:04:04;;;;;;;16.15;14.13;;;;;;;3.64;85.38;99543.47;1813497;79;21179;-61
2021/04/18 04:06:34;;;;;;;20.55;15.25;;;;;;;3.68;85.09;99543.42;1813302;79;21132;-61
2021/04/18 04:09:04;;;;;;;17.80;15.58;;;;;;;3.77;85.22;99542.47;1813518;79;21172;-61
2021/04/18 04:11:34;;;;;;;18.15;14.25;;;;;;;3.90;85.44;99543.14;1812514;79;21148;-61
2021/04/18 04:14:02;;;;;;;16.95;12.73;;;;;;;4.03;85.42;99536.95;1813548;78;21248;-60
2021/04/18 04:16:32;;;;;;;14.07;11.78;;;;;;;4.09;85.25;99535.58;1813248;78;21521;-60
2021/04/18 04:19:01;;;;;;;15.08;12.82;;;;;;;4.12;85.56;99533.82;1813405;78;21041;-60
2021/04/18 04:21:43;;;;;;;16.80;15.05;;;;;;;4.20;85.80;99533.69;1809293;77;21913;-60
2021/04/18 04:24:29;;;;;;;21.45;15.90;;;;;;;4.33;85.85;99534.38;1813562;79;21044;-61
2021/04/18 04:26:56;;;;;;;22.50;15.15;;;;;;;4.47;86.02;99532.00;1813513;79;21427;-61
2021/04/18 04:29:23;;;;;;;20.02;14.35;;;;;;;4.64;86.00;99526.56;1813423;79;21188;-61
2021/04/18 04:31:52;;;;;;;20.40;16.10;;;;;;;4.81;85.69;99526.27;1813499;79;21062;-61
2021/04/18 04:34:20;;;;;;;22.93;16.57;;;;;;;4.89;85.58;99521.84;1813451;79;21041;-61
2021/04/18 04:36:47;;;;;;;25.75;19.17;;;;;;;5.01;85.57;99523.34;1813518;79;21108;-61
2021/04/18 04:39:15;;;;;;;25.52;17.27;;;;;;;5.12;85.25;99533.04;1813430;79;21140;-61
2021/04/18 04:41:42;;;;;;;25.82;17.60;;;;;;;5.19;85.00;99532.05;1813405;79;21887;-62
2021/04/18 04:44:16;;;;;;;29.70;17.73;;;;;;;5.29;84.95;99531.42;1813465;78;21074;-61
2021/04/18 04:46:39;;;;;;;20.60;16.23;;;;;;;5.42;84.55;99533.73;1812814;79;21045;-61
2021/04/18 04:49:06;;;;;;;26.17;17.05;;;;;;;5.55;84.32;99525.33;1813521;79;21108;-60
2021/04/18 04:51:34;;;;;;;25.05;17.98;;;;;;;5.70;84.03;99514.69;1813496;79;21374;-60
2021/04/18 04:54:03;;;;;;;21.87;17.90;;;;;;;5.84;83.55;99514.38;1813480;79;21069;-61
2021/04/18 04:56:31;;;;;;;22.22;17.82;;;;;;;5.97;83.47;99511.99;1813454;79;21046;-61
2021/04/18 04:58:59;;;;;;;29.87;19.98;;;;;;;6.11;82.86;99508.65;1813471;79;21064;-62
2021/04/18 05:01:26;;;;;;;46.73;21.87;;;;;;;6.23;82.78;99510.94;1813551;79;21697;-60
2021/04/18 05:03:54;;;;;;;25.15;20.15;;;;;;;6.39;82.31;99520.49;1813478;78;22379;-60
2021/04/18 05:06:21;;;;;;;28.23;19.75;;;;;;;6.46;81.84;99514.72;1813412;79;21073;-60
2021/04/18 05:08:50;;;;;;;26.37;21.75;;;;;;;6.46;81.71;99514.72;1813452;79;21474;-60
2021/04/18 05:11:17;;;;;;;28.35;20.32;;;;;;;6.47;81.63;99517.70;1813455;78;21140;-60
2021/04/18 05:13:45;;;;;;;29.27;21.80;;;;;;;6.49;81.41;99518.08;1813492;79;21100;-61
2021/04/18 05:16:13;;;;;;;31.25;21.07;;;;;;;6.55;81.40;99515.80;1813467;78;22682;-61
2021/04/18 05:18:45;;;;;;;41.85;23.05;;;;;;;6.65;81.43;99508.21;1813383;79;21073;-61
2021/04/18 05:21:14;;;;;;;30.35;21.95;;;;;;;6.72;81.30;99511.50;1807502;78;21179;-61
2021/04/18 05:23:41;;;;;;;33.88;24.57;;;;;;;6.78;81.32;99516.52;1799927;79;21496;-61
2021/04/18 05:26:09;;;;;;;32.90;22.27;;;;;;;6.86;81.27;99510.25;1799847;79;21065;-61
2021/04/18 05:28:37;;;;;;;26.05;18.52;;;;;;;6.98;81.11;99514.28;1799919;79;22123;-61
2021/04/18 05:31:04;;;;;;;23.18;17.87;;;;;;;7.09;80.77;99521.73;1799831;78;21108;-61
2021/04/18 05:33:32;;;;;;;39.27;19.25;;;;;;;7.13;80.56;99524.20;1800104;79;21477;-60
2021/04/18 05:36:02;;;;;;;23.10;17.27;;;;;;;7.19;80.45;99515.45;1799950;79;21069;-61
2021/04/18 05:38:30;;;;;;;19.17;16.12;;;;;;;7.28;80.36;99513.03;1800015;79;21057;-61
2021/04/18 05:40:57;;;;;;;18.27;15.75;;;;;;;7.42;80.14;99507.02;1799973;79;23578;-61
2021/04/18 05:43:26;;;;;;;18.77;15.60;;;;;;;7.55;79.82;99507.95;1799891;79;21116;-61
2021/04/18 05:45:53;;;;;;;19.65;16.20;;;;;;;7.69;79.15;99510.58;1799956;78;21159;-61
2021/04/18 05:48:21;;;;;;;23.70;17.95;;;;;;;7.80;78.87;99508.06;1799929;79;21045;-61
2021/04/18 05:50:50;;;;;;;16.97;14.70;;;;;;;7.95;78.51;99511.95;1800055;78;21480;-61
2021/04/18 05:53:18;;;;;;;24.43;17.62;;;;;;;8.05;77.92;99514.66;1799961;79;21238;-61
2021/04/18 05:55:46;;;;;;;19.07;14.80;;;;;;;8.12;77.59;99514.88;1800005;78;21124;-61
2021/04/18 05:58:16;;;;;;;18.62;13.03;;;;;;;8.15;77.14;99512.20;1799918;79;21174;-61
2021/04/18 06:00:44;;;;;;;19.95;14.85;;;;;;;8.23;77.02;99517.12;1799946;79;21191;-61
2021/04/18 06:03:11;;;;;;;32.03;16.57;;;;;;;8.34;76.64;99518.13;1799902;79;21049;-61
2021/04/18 06:05:39;;;;;;;19.30;15.23;;;;;;;8.35;76.17;99519.83;1799978;79;21360;-61
2021/04/18 06:08:07;;;;;;;24.00;17.35;;;;;;;8.32;76.08;99518.17;1799859;79;21124;-61
2021/04/18 06:10:35;;;;;;;22.65;17.32;;;;;;;8.40;76.26;99516.62;1799906;78;21104;-61
2021/04/18 06:13:02;;;;;;;26.65;18.12;;;;;;;8.53;76.19;99522.68;1799908;79;21068;-61
2021/04/18 06:15:29;;;;;;;23.10;16.70;;;;;;;8.69;75.51;99529.95;1799968;79;21064;-61
2021/04/18 06:17:58;;;;;;;22.17;16.73;;;;;;;8.77;75.32;99527.52;1799669;78;21335;-61
2021/04/18 06:20:26;;;;;;;23.90;16.62;;;;;;;8.92;75.17;99529.59;1799812;78;21108;-63
2021/04/18 06:22:53;;;;;;;37.63;28.60;;;;;;;9.14;74.67;99527.56;1799863;79;21140;-62
2021/04/18 06:25:23;;;;;;;104.40;76.80;;;;;;;9.30;73.80;99535.20;1799821;79;21077;-61
2021/04/18 06:27:51;;;;;;;40.33;28.02;;;;;;;9.35;73.25;99532.00;1799945;79;21056;-61
2021/04/18 06:30:20;;;;;;;29.35;20.17;;;;;;;9.36;72.99;99535.45;1799923;78;21395;-61
2021/04/18 06:32:48;;;;;;;18.67;14.90;;;;;;;9.34;72.86;99530.30;1799943;79;21052;-62
2021/04/18 06:35:15;;;;;;;27.73;16.82;;;;;;;9.42;72.78;99527.42;1799903;79;21116;-62
2021/04/18 06:37:44;;;;;;;26.30;17.00;;;;;;;9.46;72.73;99532.45;1799905;79;21188;-61
2021/04/18 06:40:13;;;;;;;39.40;24.72;;;;;;;9.58;72.91;99544.16;1799877;79;21072;-61
2021/04/18 06:42:40;;;;;;;30.40;25.65;;;;;;;9.77;72.14;99532.65;1784645;79;22036;-61
2021/04/18 06:45:10;;;;;;;40.55;23.90;;;;;;;9.80;71.66;99541.59;1799849;78;21053;-61
2021/04/18 06:47:39;;;;;;;22.02;18.85;;;;;;;9.73;71.51;99534.95;1799944;79;21052;-62
2021/04/18 06:50:09;;;;;;;19.85;17.27;;;;;;;9.75;71.79;99540.95;1799988;79;21552;-62
2021/04/18 06:52:36;;;;;;;42.90;20.20;;;;;;;9.83;71.70;99535.84;1799912;79;21113;-61
2021/04/18 06:55:06;;;;;;;20.35;15.38;;;;;;;10.00;71.62;99537.34;1799865;79;21186;-61
2021/04/18 06:57:34;;;;;;;38.00;16.50;;;;;;;10.19;70.94;99544.02;1799899;78;21143;-62
2021/04/18 07:00:05;;;;;;;22.98;16.02;;;;;;;10.28;70.25;99532.43;1799975;79;21469;-61
2021/04/18 07:02:34;;;;;;;27.52;15.20;;;;;;;10.30;70.11;99536.67;1799906;79;21469;-63
2021/04/18 07:05:10;;;;;;;23.27;14.43;;;;;;;10.33;69.83;99530.05;1800058;79;21475;-62
2021/04/18 07:07:43;;;;;;;21.37;14.25;;;;;;;10.36;69.64;99531.69;1799903;79;21363;-62
2021/04/18 07:10:28;;;;;;;15.93;14.10;;;;;;;10.43;69.81;99529.67;1800057;79;21581;-63
2021/04/18 07:13:10;;;;;;;21.35;14.15;;;;;;;10.56;69.34;99527.84;1799912;78;21093;-61
2021/04/18 07:15:42;;;;;;;27.55;15.70;;;;;;;10.74;68.61;99521.04;1786279;79;22118;-62
2021/04/18 07:18:13;;;;;;;22.17;14.53;;;;;;;10.88;68.10;99519.16;1799940;78;21155;-63
2021/04/18 07:20:51;;;;;;;14.98;13.38;;;;;;;10.99;67.43;99519.56;1799889;78;21359;-63
2021/04/18 07:23:30;;;;;;;24.00;14.00;;;;;;;11.09;66.75;99522.15;1799849;79;21049;-61
2021/04/18 07:26:21;;;;;;;16.80;12.05;;;;;;;11.18;66.68;99516.56;1794581;78;21077;-61
2021/04/18 07:28:52;;;;;;;17.57;12.20;;;;;;;11.32;65.90;99517.27;1799870;78;21261;-63
2021/04/18 07:31:33;;;;;;;70.45;18.10;;;;;;;11.40;65.66;99517.75;1798018;79;21033;-62
2021/04/18 07:34:09;;;;;;;19.90;13.60;;;;;;;11.58;64.77;99519.56;1799960;79;21421;-62
2021/04/18 07:36:39;;;;;;;26.93;12.82;;;;;;;11.73;64.26;99519.33;1799926;79;21528;-63
2021/04/18 07:39:09;;;;;;;20.50;11.68;;;;;;;11.98;63.57;99521.70;1799785;78;21143;-63
2021/04/18 07:41:47;;;;;;;18.23;11.88;;;;;;;12.17;62.34;99509.95;1800010;79;21564;-63
2021/04/18 07:44:19;;;;;;;22.60;11.50;;;;;;;12.25;61.42;99507.34;1799875;79;21105;-63
2021/04/18 07:46:50;;;;;;;13.03;11.83;;;;;;;12.31;60.51;99504.91;1799870;79;21383;-61
2021/04/18 07:49:19;;;;;;;17.20;11.83;;;;;;;12.31;60.41;99503.61;1800050;79;21489;-63
2021/04/18 07:51:49;;;;;;;17.92;13.43;;;;;;;12.34;60.29;99506.92;1799842;79;21072;-61
2021/04/18 07:54:18;;;;;;;14.50;10.20;;;;;;;12.42;60.16;99507.84;1799980;79;21567;-61
2021/04/18 07:56:49;;;;;;;13.03;10.55;;;;;;;12.43;59.13;99509.06;1799865;79;21105;-63
2021/04/18 07:59:18;;;;;;;20.23;10.28;;;;;;;12.40;58.84;99504.45;1799817;79;21547;-62
2021/04/18 08:01:45;;;;;;;11.50;8.90;;;;;;;12.42;58.55;99503.92;1799805;79;21120;-61
2021/04/18 08:04:16;;;;;;;10.45;9.38;;;;;;;12.48;57.32;99494.50;1799420;79;21191;-61
2021/04/18 08:06:44;;;;;;;21.33;8.90;;;;;;;12.52;56.89;99495.20;1799947;79;21136;-62
2021/04/18 08:09:21;;;;;;;9.00;7.67;;;;;;;12.65;56.49;99493.21;1799875;79;21753;-62
2021/04/18 08:12:15;;;;;;;13.83;10.08;;;;;;;12.88;55.74;99488.16;1799860;79;21325;-62
2021/04/18 08:14:47;;;;;;;10.03;8.85;;;;;;;13.15;55.97;99483.76;1799862;79;21651;-63
2021/04/18 08:17:17;;;;;;;11.12;9.33;;;;;;;13.27;55.20;99481.84;1799834;79;21147;-62
2021/04/18 08:19:57;;;;;;;11.90;8.23;;;;;;;13.31;54.85;99482.06;1799807;79;21131;-62
2021/04/18 08:22:25;;;;;;;10.20;8.70;;;;;;;13.41;53.86;99478.03;1804180;78;21116;-61
2021/04/18 08:25:07;;;;;;;32.05;9.50;;;;;;;13.42;53.34;99471.42;1807727;79;21183;-62
2021/04/18 08:28:12;;;;;;;14.87;8.23;;;;;;;13.21;52.34;99467.32;1795642;79;21629;-64
2021/04/18 08:31:09;;;;;;;7.78;7.00;;;;;;;12.99;52.84;99464.94;1807901;79;21481;-62
2021/04/18 08:33:53;;;;;;;7.70;6.90;;;;;;;12.63;52.60;99467.66;1872896;76;22707;-62
2021/04/18 08:36:28;;;;;;;20.02;8.03;;;;;;;12.33;52.68;99456.98;1841631;77;21071;-62
2021/04/18 08:39:09;;;;;;;7.65;6.90;;;;;;;12.19;52.59;99455.48;1841151;78;21435;-64
2021/04/18 08:41:41;;;;;;;10.75;6.55;;;;;;;12.24;53.00;99456.11;1841499;78;21184;-63
2021/04/18 08:44:31;;;;;;;7.40;6.35;;;;;;;12.39;52.50;99441.47;1841924;78;21022;-63
2021/04/18 08:47:08;;;;;;;6.95;5.60;;;;;;;12.55;52.40;99442.88;1841671;78;21049;-63
2021/04/18 08:49:44;;;;;;;6.72;5.37;;;;;;;12.78;51.20;99437.36;1841668;78;21116;-64
2021/04/18 08:52:22;;;;;;;5.62;5.12;;;;;;;12.96;50.30;99436.41;1841113;78;21369;-63
2021/04/18 08:54:51;;;;;;;6.58;5.08;;;;;;;13.22;49.92;99432.91;1841510;77;21099;-63
2021/04/18 08:57:24;;;;;;;5.70;5.15;;;;;;;13.44;49.21;99423.84;1841522;78;21085;-61
2021/04/18 09:00:01;;;;;;;9.35;5.80;;;;;;;13.61;47.25;99414.25;1841673;77;21457;-62
2021/04/18 09:02:29;;;;;;;16.27;5.92;;;;;;;13.62;47.62;99414.16;1841565;77;21144;-62
2021/04/18 09:05:01;;;;;;;7.75;5.85;;;;;;;13.63;47.87;99416.31;1841476;78;21352;-62
2021/04/18 09:07:31;;;;;;;6.60;5.85;;;;;;;13.54;47.20;99403.77;1841471;77;21509;-62
2021/04/18 09:10:07;;;;;;;6.13;5.47;;;;;;;13.40;47.61;99409.72;1841777;77;21101;-62
2021/04/18 09:12:34;;;;;;;9.18;5.10;;;;;;;13.40;47.67;99412.34;1841487;78;21494;-61
2021/04/18 09:15:02;;;;;;;13.80;6.15;;;;;;;13.53;46.57;99404.23;1841468;78;21204;-62
2021/04/18 09:17:31;;;;;;;10.18;5.40;;;;;;;13.56;46.41;99406.69;1841495;77;21421;-62
2021/04/18 09:20:06;;;;;;;6.37;4.28;;;;;;;13.59;46.29;99406.48;1841522;77;21545;-62
2021/04/18 09:22:39;;;;;;;13.95;6.17;;;;;;;13.66;45.88;99396.55;1811997;78;21069;-62
2021/04/18 09:25:17;;;;;;;15.83;5.35;;;;;;;13.79;45.76;99394.47;1808590;79;21164;-64
2021/04/18 09:27:52;;;;;;;10.63;4.80;;;;;;;13.92;45.62;99392.03;1808529;79;21053;-62
2021/04/18 09:30:27;;;;;;;25.35;5.12;;;;;;;14.01;45.69;99381.50;1808579;79;22133;-62
2021/04/18 09:33:01;;;;;;;4.17;3.77;;;;;;;14.00;45.06;99388.97;1804244;77;21005;-63
2021/04/18 09:35:29;;;;;;;4.83;4.15;;;;;;;13.90;44.63;99391.27;1800869;79;21190;-62
2021/04/18 09:38:01;;;;;;;4.87;4.25;;;;;;;13.83;44.46;99386.46;1800486;78;21250;-64
2021/04/18 09:40:31;;;;;;;5.97;4.40;;;;;;;13.81;44.62;99382.63;1800792;78;21117;-62
2021/04/18 09:43:00;;;;;;;8.15;4.83;;;;;;;13.82;45.11;99378.23;1784876;79;21348;-63
2021/04/18 09:45:31;;;;;;;9.08;4.33;;;;;;;13.82;45.71;99384.77;1799871;79;21140;-61
2021/04/18 09:48:15;;;;;;;5.35;4.60;;;;;;;13.82;45.54;99377.78;1799914;79;21163;-61
2021/04/18 09:50:43;;;;;;;5.25;4.45;;;;;;;13.80;45.75;99366.56;1799985;79;21068;-61
2021/04/18 09:53:22;;;;;;;5.40;4.90;;;;;;;13.87;46.05;99370.98;1799927;79;21124;-63
2021/04/18 09:55:56;;;;;;;5.53;5.03;;;;;;;13.82;46.39;99361.25;1799951;79;21092;-63
2021/04/18 09:58:31;;;;;;;5.95;4.53;;;;;;;13.70;46.49;99366.71;1794735;79;21101;-62
2021/04/18 10:01:00;;;;;;;5.25;4.72;;;;;;;13.59;46.70;99363.38;1799937;79;21068;-61
2021/04/18 10:03:39;;;;;;;7.03;4.97;;;;;;;13.55;46.57;99361.88;1799842;79;21564;-61
2021/04/18 10:06:10;;;;;;;4.42;4.03;;;;;;;13.60;46.79;99355.91;1799946;79;21013;-62
2021/04/18 10:08:39;;;;;;;4.62;4.15;;;;;;;13.70;46.84;99349.72;1799904;78;23462;-63
2021/04/18 10:11:15;;;;;;;6.78;4.83;;;;;;;13.81;46.36;99356.48;1799817;79;21191;-62
2021/04/18 10:13:56;;;;;;;6.58;4.55;;;;;;;13.82;45.71;99352.94;1799904;79;21057;-62
2021/04/18 10:16:37;;;;;;;5.55;4.65;;;;;;;13.86;45.56;99348.39;1799942;79;21192;-62
2021/04/18 10:19:21;;;;;;;5.70;5.10;;;;;;;13.98;45.75;99359.01;1799965;79;21037;-62
2021/04/18 10:22:08;;;;;;;6.03;5.03;;;;;;;14.11;46.00;99353.91;1799891;78;21184;-62
2021/04/18 10:24:42;;;;;;;7.55;4.80;;;;;;;14.13;45.82;99357.28;1799937;78;20965;-62
2021/04/18 10:27:11;;;;;;;5.15;4.37;;;;;;;14.17;45.65;99350.10;1799934;79;21092;-62
2021/04/18 10:29:39;;;;;;;7.33;5.05;;;;;;;14.34;45.61;99349.50;1799920;79;21109;-63
2021/04/18 10:32:07;;;;;;;7.05;5.05;;;;;;;14.54;45.11;99355.36;1799964;79;21222;-63
2021/04/18 10:34:36;;;;;;;7.50;5.15;;;;;;;14.56;44.88;99355.64;1807874;78;21239;-63
2021/04/18 10:37:04;;;;;;;16.65;5.67;;;;;;;14.53;44.96;99355.82;1807743;78;20931;-62
2021/04/18 10:39:33;;;;;;;10.82;5.35;;;;;;;14.43;44.91;99347.66;1807894;79;20943;-62
2021/04/18 10:42:00;;;;;;;8.68;5.08;;;;;;;14.44;45.37;99351.12;1807832;79;21144;-62
2021/04/18 10:44:28;;;;;;;4.58;4.17;;;;;;;14.62;45.31;99345.25;1807899;79;21104;-62
2021/04/18 10:46:58;;;;;;;6.50;4.42;;;;;;;14.88;44.31;99354.16;1807817;79;21310;-63
2021/04/18 10:49:26;;;;;;;5.85;5.05;;;;;;;15.10;43.81;99355.84;1807761;79;21495;-62
2021/04/18 10:51:56;;;;;;;8.90;4.55;;;;;;;15.27;43.74;99347.77;1807773;79;21058;-62
2021/04/18 10:54:23;;;;;;;7.45;5.95;;;;;;;15.39;43.32;99349.61;1807814;79;20935;-62
2021/04/18 10:56:51;;;;;;;5.78;4.92;;;;;;;15.39;43.23;99354.01;1807724;78;21137;-62
2021/04/18 10:59:18;;;;;;;6.83;5.12;;;;;;;15.31;43.17;99345.81;1807787;78;21302;-62
2021/04/18 11:01:46;;;;;;;7.22;5.17;;;;;;;15.25;43.31;99350.11;1807778;79;21213;-62
2021/04/18 11:04:15;;;;;;;4.80;3.80;;;;;;;15.14;43.26;99350.80;1807773;79;21041;-64
2021/04/18 11:06:44;;;;;;;10.85;4.47;;;;;;;15.03;43.14;99356.68;1807811;79;21034;-62
2021/04/18 11:09:11;;;;;;;15.15;5.55;;;;;;;14.92;43.77;99349.96;1807817;78;21058;-62
2021/04/18 11:11:39;;;;;;;4.67;4.28;;;;;;;14.86;44.13;99352.10;1807765;79;21238;-62
2021/04/18 11:14:07;;;;;;;5.20;4.67;;;;;;;14.80;44.65;99347.60;1807724;79;21230;-61
2021/04/18 11:16:35;;;;;;;7.30;4.40;;;;;;;14.77;44.69;99343.05;1807783;78;21081;-61
2021/04/18 11:19:02;;;;;;;5.47;4.97;;;;;;;14.75;44.97;99348.38;1807784;78;21041;-62
2021/04/18 11:21:30;;;;;;;6.80;5.00;;;;;;;14.77;45.11;99343.05;1807764;78;21121;-62
2021/04/18 11:23:59;;;;;;;4.70;4.28;;;;;;;14.73;45.41;99340.23;1807731;79;21395;-63
2021/04/18 11:26:27;;;;;;;10.13;5.17;;;;;;;14.72;45.60;99338.55;1807705;79;21085;-61
2021/04/18 11:28:56;;;;;;;7.80;5.05;;;;;;;14.72;45.55;99338.08;1807760;78;21088;-62
2021/04/18 11:31:25;;;;;;;4.85;4.22;;;;;;;14.80;45.50;99341.52;1807801;79;21062;-63
2021/04/18 11:33:52;;;;;;;5.33;4.10;;;;;;;14.88;45.25;99343.22;1807576;79;21069;-62
2021/04/18 11:36:21;;;;;;;8.28;4.97;;;;;;;14.90;45.17;99341.82;1807768;79;21140;-62
2021/04/18 11:38:48;;;;;;;6.10;5.00;;;;;;;14.94;45.26;99343.32;1807714;79;21065;-65
2021/04/18 11:41:18;;;;;;;6.53;4.10;;;;;;;15.03;44.81;99336.19;1776871;79;21153;-62